Time;durP1;ratioP1;P1;durP2;ratioP2;P2;SDS_P1;SDS_P2;PMS_P1;PMS_P2;Temp;Humidity;BMP_temperature;BMP_pressure;BME280_temperature;BME280_humidity;BME280_pressure;Samples;Min_cycle;Max_cycle;Signal;HPM_P1;HPM_P2
2022/11/25 00:01:46;;;;;;;16.92;7.05;;;;;;;-3.20;66.56;100281.66;6130299;23;20080;-87
2022/11/25 00:04:13;;;;;;;14.30;6.75;;;;;;;-2.98;66.85;100305.59;6189660;23;20076;-87
2022/11/25 00:06:48;;;;;;;14.25;7.75;;;;;;;-2.97;66.53;100297.41;6142445;23;20016;-87
2022/11/25 00:09:44;;;;;;;14.65;7.03;;;;;;;-2.69;66.81;100344.63;6085581;23;20226;-87
2022/11/25 00:12:33;;;;;;;15.35;7.55;;;;;;;-2.62;66.46;100332.94;6054099;23;20026;-89
2022/11/25 00:15:53;;;;;;;14.60;7.05;;;;;;;-2.49;66.31;100342.00;6109809;23;19995;-87
2022/11/25 00:18:27;;;;;;;14.05;6.18;;;;;;;-2.78;65.99;100306.53;6082996;23;20018;-86
2022/11/25 00:20:56;;;;;;;15.70;6.38;;;;;;;-2.76;65.93;100312.47;6108038;23;20025;-85
2022/11/25 00:24:14;;;;;;;16.42;6.53;;;;;;;-2.67;66.20;100359.47;6098515;23;20094;-85
2022/11/25 00:26:43;;;;;;;20.50;7.25;;;;;;;-2.63;66.70;100355.34;6090101;23;20083;-87
2022/11/25 00:29:15;;;;;;;14.02;6.68;;;;;;;-2.43;66.67;100359.94;6098679;23;20002;-89
2022/11/25 00:31:49;;;;;;;18.45;6.82;;;;;;;-2.48;65.96;100363.22;6091511;23;20412;-85
2022/11/25 00:34:28;;;;;;;15.18;6.60;;;;;;;-2.72;66.02;100323.59;6084714;23;20034;-84
2022/11/25 00:36:55;;;;;;;14.68;6.50;;;;;;;-2.76;66.04;100320.50;6109193;23;20077;-85
2022/11/25 00:39:23;;;;;;;15.77;6.95;;;;;;;-3.04;66.05;100290.38;6107912;23;20084;-86
2022/11/25 00:44:39;;;;;;;13.68;6.50;;;;;;;-2.46;66.53;100360.34;6157721;23;20017;-86
2022/11/25 00:47:53;;;;;;;14.15;6.05;;;;;;;-2.66;66.11;100330.84;6076577;23;20404;-88
2022/11/25 00:50:19;;;;;;;12.90;5.95;;;;;;;-2.73;65.76;100316.63;6071348;23;20361;-88
2022/11/25 00:52:47;;;;;;;22.45;7.75;;;;;;;-2.74;66.54;100336.38;6046348;23;20019;-89
2022/11/25 00:55:13;;;;;;;;;;;;;;;-2.50;66.27;100353.75;6070682;23;20041;-87
2022/11/25 00:57:40;;;;;;;14.95;7.20;;;;;;;-2.85;66.13;100311.00;6046293;23;19917;-87
2022/11/25 01:00:24;;;;;;;21.67;7.60;;;;;;;-2.91;66.43;100327.88;6048258;23;20029;-86
2022/11/25 01:02:50;;;;;;;18.45;7.75;;;;;;;-2.94;66.40;100306.88;6023576;23;20098;-87
2022/11/25 01:05:16;;;;;;;17.08;7.22;;;;;;;-2.55;66.35;100380.28;5985089;23;20051;-87
2022/11/25 01:07:45;;;;;;;14.30;6.13;;;;;;;-2.94;66.38;100331.78;6030379;23;20034;-87
2022/11/25 01:10:12;;;;;;;15.70;6.97;;;;;;;-2.47;66.49;100367.53;6042439;23;20093;-87
2022/11/25 01:12:54;;;;;;;16.77;7.32;;;;;;;-2.34;65.75;100380.16;5998657;23;20023;-87
2022/11/25 01:15:20;;;;;;;23.67;6.95;;;;;;;-2.36;65.57;100374.97;5994409;23;20015;-88
2022/11/25 01:17:50;;;;;;;15.27;7.45;;;;;;;-2.43;65.27;100381.34;5991904;23;20290;-88
2022/11/25 01:20:19;;;;;;;17.13;7.20;;;;;;;-2.41;65.71;100384.66;6059111;23;20025;-89
2022/11/25 01:22:50;;;;;;;16.58;7.28;;;;;;;-2.71;66.14;100344.84;6200150;23;20071;-87
2022/11/25 01:25:16;;;;;;;15.13;7.20;;;;;;;-3.06;66.30;100328.00;6147722;23;20104;-90
2022/11/25 01:27:48;;;;;;;17.55;7.43;;;;;;;-2.74;66.10;100361.28;6165122;23;20029;-94
2022/11/25 01:30:15;;;;;;;17.48;7.68;;;;;;;-2.53;66.20;100394.31;6117670;23;20045;-89
2022/11/25 01:35:54;;;;;;;16.83;8.00;;;;;;;-2.71;65.85;100355.53;6150853;23;20029;-95
2022/11/25 01:38:29;;;;;;;16.83;7.93;;;;;;;-2.92;65.96;100348.44;6170550;23;20018;-94
2022/11/25 01:40:57;;;;;;;18.58;8.30;;;;;;;-2.91;66.54;100338.59;6093500;23;20030;-87
2022/11/25 01:43:26;;;;;;;17.17;7.82;;;;;;;-3.14;67.13;100296.91;6143143;23;20320;-90
2022/11/25 01:45:58;;;;;;;19.10;8.07;;;;;;;-2.74;65.89;100347.09;6092997;23;20022;-90
2022/11/25 01:48:31;;;;;;;18.63;7.97;;;;;;;-2.54;67.22;100406.03;6111924;23;20021;-89
2022/11/25 01:50:59;;;;;;;17.60;7.82;;;;;;;-2.74;66.41;100358.59;6141179;23;20020;-89
2022/11/25 01:53:29;;;;;;;21.38;9.18;;;;;;;-2.78;67.16;100368.06;6157626;23;20018;-89
2022/11/25 01:56:02;;;;;;;20.80;9.07;;;;;;;-3.02;67.16;100333.78;6182246;23;20013;-87
2022/11/25 01:58:36;;;;;;;17.33;8.75;;;;;;;-3.00;67.56;100359.31;6152082;23;20045;-87
2022/11/25 02:01:08;;;;;;;20.95;9.65;;;;;;;-2.65;67.56;100391.34;6150032;23;20467;-86
2022/11/25 02:03:57;;;;;;;15.85;7.40;;;;;;;-3.23;68.09;100327.53;6148141;23;20009;-88
2022/11/25 02:06:52;;;;;;;19.20;9.35;;;;;;;-2.62;67.63;100388.28;6169298;23;20006;-88
2022/11/25 02:09:22;;;;;;;23.95;9.20;;;;;;;-2.54;67.54;100377.41;6167938;23;20013;-88
2022/11/25 02:11:50;;;;;;;21.02;8.82;;;;;;;-2.64;67.52;100360.91;6116178;23;20049;-88
2022/11/25 02:14:20;;;;;;;21.35;8.50;;;;;;;-2.81;66.95;100336.38;6162315;23;20069;-87
2022/11/25 02:17:06;;;;;;;20.05;8.48;;;;;;;-2.52;67.36;100404.78;6140567;23;20085;-86
2022/11/25 02:20:24;;;;;;;17.83;7.38;;;;;;;-2.79;67.55;100371.75;6098359;23;20014;-87
2022/11/25 02:23:24;;;;;;;21.20;7.45;;;;;;;-2.63;67.69;100400.84;6065915;23;20018;-87
2022/11/25 02:32:45;;;;;;;15.95;7.47;;;;;;;-3.38;68.25;100292.06;6180168;23;20036;-92
2022/11/25 02:39:06;;;;;;;14.00;6.38;;;;;;;-2.76;68.00;100403.47;6211465;22;20021;-85
2022/11/25 02:42:14;;;;;;;15.43;6.13;;;;;;;-3.18;67.71;100349.16;6198856;23;20023;-85
2022/11/25 02:44:55;;;;;;;11.82;5.88;;;;;;;-2.70;67.09;100410.72;6146928;23;20360;-86
2022/11/25 02:47:23;;;;;;;14.23;6.53;;;;;;;-2.72;66.45;100388.66;6145102;23;19997;-87
2022/11/25 02:49:49;;;;;;;14.73;5.37;;;;;;;-2.91;65.52;100387.56;6170961;23;20017;-88
2022/11/25 02:52:15;;;;;;;11.52;5.90;;;;;;;-2.57;65.83;100426.00;6169276;23;20001;-88
2022/11/25 02:54:53;;;;;;;13.30;5.75;;;;;;;-3.14;65.99;100362.97;6196036;23;20024;-87
2022/11/25 03:00:18;;;;;;;11.50;6.18;;;;;;;-2.70;66.39;100424.09;6188466;23;20033;-87
2022/11/25 03:02:56;;;;;;;11.45;5.68;;;;;;;-3.14;65.64;100349.59;6194793;23;20082;-88
2022/11/25 03:05:48;;;;;;;11.30;4.97;;;;;;;-2.53;65.62;100435.28;6167260;23;20016;-87
2022/11/25 03:08:30;;;;;;;12.07;5.82;;;;;;;-2.61;65.98;100444.31;6140682;23;20021;-87
2022/11/25 03:14:09;;;;;;;14.32;7.05;;;;;;;-3.05;65.88;100375.13;6161385;23;20055;-85
2022/11/25 03:16:35;;;;;;;13.43;6.85;;;;;;;-2.79;65.77;100417.25;6170426;23;20013;-86
2022/11/25 03:19:20;;;;;;;11.88;6.10;;;;;;;-2.64;65.50;100462.63;6191526;23;20458;-87
2022/11/25 03:21:46;;;;;;;13.35;6.60;;;;;;;-2.84;65.74;100443.78;6125640;23;20013;-91
2022/11/25 03:24:22;;;;;;;14.88;7.00;;;;;;;-2.88;66.06;100447.84;6154124;23;20021;-90
2022/11/25 03:26:53;;;;;;;12.75;6.28;;;;;;;-2.94;66.25;100429.94;6185737;22;20004;-85
2022/11/25 03:29:33;;;;;;;14.73;6.93;;;;;;;-2.56;66.69;100477.69;6216951;23;20000;-88
2022/11/25 03:32:01;;;;;;;16.35;6.75;;;;;;;-2.99;66.04;100394.91;6204493;23;20024;-88
2022/11/25 03:34:28;;;;;;;14.93;6.95;;;;;;;-2.85;65.79;100445.63;6203894;22;20005;-88
2022/11/25 03:37:41;;;;;;;15.93;6.97;;;;;;;-2.67;66.45;100481.75;6154564;23;20016;-87
2022/11/25 03:44:00;;;;;;;16.10;7.57;;;;;;;-2.61;66.86;100486.31;6053370;23;20028;-89
2022/11/25 03:46:29;;;;;;;15.35;7.85;;;;;;;-2.49;66.17;100497.28;6162360;23;20479;-86
2022/11/25 03:49:17;;;;;;;15.30;7.03;;;;;;;-2.49;66.22;100476.69;6153456;23;20001;-87
2022/11/25 03:51:45;;;;;;;14.85;7.20;;;;;;;-2.43;65.62;100472.41;6138996;23;20462;-86
2022/11/25 03:54:18;;;;;;;17.98;6.55;;;;;;;-2.83;65.94;100438.22;6172658;23;20016;-86
2022/11/25 03:57:06;;;;;;;15.88;6.90;;;;;;;-2.58;65.78;100463.66;6128632;23;20014;-87
2022/11/25 04:00:12;;;;;;;16.17;6.80;;;;;;;-2.65;65.76;100443.06;6157202;23;20017;-86
2022/11/25 04:03:14;;;;;;;16.48;7.50;;;;;;;-2.33;65.85;100502.31;6048602;23;20069;-84
2022/11/25 04:06:01;;;;;;;16.83;7.38;;;;;;;-2.84;65.86;100430.41;6077679;23;20028;-90
2022/11/25 04:09:34;;;;;;;16.08;7.03;;;;;;;-2.46;66.21;100495.03;6120555;23;20079;-87
2022/11/25 04:15:30;;;;;;;23.63;7.70;;;;;;;-2.87;66.77;100452.19;6208675;23;20050;-91
2022/11/25 04:17:57;;;;;;;16.20;7.05;;;;;;;-2.67;67.44;100487.09;6178502;23;20023;-86
2022/11/25 04:20:24;;;;;;;17.45;7.88;;;;;;;-2.80;66.99;100438.88;6195465;23;20166;-90
2022/11/25 04:23:15;;;;;;;14.27;7.05;;;;;;;-2.32;66.33;100511.97;6202129;23;20020;-89
2022/11/25 04:26:09;;;;;;;14.52;6.90;;;;;;;-2.29;66.24;100505.41;6205285;23;20020;-91
2022/11/25 04:29:10;;;;;;;16.50;7.72;;;;;;;-2.44;66.23;100510.91;6181107;22;20035;-92
2022/11/25 04:31:36;;;;;;;13.57;6.18;;;;;;;-3.14;66.36;100411.91;6182631;23;20036;-88
2022/11/25 04:34:21;;;;;;;16.50;7.05;;;;;;;-2.79;66.95;100468.09;6131790;23;20058;-87
2022/11/25 04:36:52;;;;;;;;;;;;;;;-2.51;66.84;100513.56;6082509;23;20139;-92
2022/11/25 04:39:22;;;;;;;14.68;6.13;;;;;;;-2.43;66.88;100516.06;6131759;23;19927;-90
2022/11/25 04:42:30;;;;;;;16.00;6.50;;;;;;;-2.98;66.60;100424.16;6094001;23;20025;-88
2022/11/25 04:45:23;;;;;;;20.55;7.25;;;;;;;-2.61;67.29;100507.75;6138361;23;20032;-88
2022/11/25 04:48:37;;;;;;;16.35;6.50;;;;;;;-2.62;67.57;100500.72;6138269;23;20018;-86
2022/11/25 04:51:03;;;;;;;15.23;6.78;;;;;;;-3.07;68.12;100450.22;6050670;23;20629;-88
2022/11/25 04:53:34;;;;;;;14.88;6.97;;;;;;;-2.82;67.88;100473.84;6127090;23;20104;-89
2022/11/25 04:56:19;;;;;;;16.73;6.35;;;;;;;-2.77;67.41;100475.94;6138400;22;20073;-88
2022/11/25 05:01:41;;;;;;;14.93;6.93;;;;;;;-3.12;67.81;100435.78;6078078;23;20033;-89
2022/11/25 05:04:45;;;;;;;19.35;7.65;;;;;;;-2.85;68.45;100488.47;6074370;23;20025;-88
2022/11/25 05:07:14;;;;;;;18.48;7.35;;;;;;;-3.15;68.14;100453.03;6074876;23;20022;-88
2022/11/25 05:09:47;;;;;;;15.27;7.03;;;;;;;-2.85;68.06;100483.09;6051865;23;20018;-89
2022/11/25 05:12:50;;;;;;;22.70;6.53;;;;;;;-2.94;67.71;100484.28;6079235;23;20109;-89
2022/11/25 05:19:20;;;;;;;18.42;7.32;;;;;;;-2.91;68.55;100507.13;6049685;23;20637;-94
2022/11/25 05:21:47;;;;;;;17.25;7.75;;;;;;;-3.61;68.76;100410.78;6098922;23;20012;-92
2022/11/25 05:24:13;;;;;;;18.13;8.05;;;;;;;-2.97;68.95;100499.88;6067381;23;20026;-91
2022/11/25 05:26:39;;;;;;;27.80;10.23;;;;;;;-3.09;69.19;100471.00;6059537;23;20038;-92
2022/11/25 05:29:09;;;;;;;23.80;8.57;;;;;;;-2.94;69.05;100502.19;6028817;23;20384;-89
2022/11/25 05:31:36;;;;;;;20.00;8.35;;;;;;;-2.96;68.66;100482.81;6050611;23;20018;-91
2022/11/25 05:34:10;;;;;;;22.45;9.20;;;;;;;-2.66;68.67;100505.63;6025557;23;20022;-89
2022/11/25 05:36:38;;;;;;;20.17;8.00;;;;;;;-2.54;67.96;100524.66;6050807;23;20050;-90
2022/11/25 05:39:04;;;;;;;20.77;9.05;;;;;;;-2.75;68.01;100485.41;6027049;23;20019;-90
2022/11/25 05:41:53;;;;;;;18.17;7.97;;;;;;;-2.54;67.93;100521.16;6054307;23;20014;-89
2022/11/25 05:44:19;;;;;;;21.95;9.30;;;;;;;-2.63;67.40;100502.56;6051658;23;20467;-89
2022/11/25 05:46:47;;;;;;;21.55;8.68;;;;;;;-2.62;68.32;100511.41;6073700;23;20022;-89
2022/11/25 05:49:14;;;;;;;22.17;8.82;;;;;;;-2.56;67.86;100515.16;6051089;23;20038;-92
2022/11/25 05:51:48;;;;;;;21.02;8.30;;;;;;;-2.89;67.89;100495.19;6074764;23;20030;-90
2022/11/25 05:54:14;;;;;;;19.05;8.65;;;;;;;-2.83;68.40;100497.09;6050925;23;20368;-91
2022/11/25 05:56:43;;;;;;;22.63;9.27;;;;;;;-3.07;68.73;100474.31;6048428;23;20484;-90
2022/11/25 05:59:31;;;;;;;25.65;9.88;;;;;;;-2.72;69.06;100522.47;6078271;23;20018;-90
2022/11/25 06:02:04;;;;;;;35.53;11.15;;;;;;;-2.86;68.56;100504.69;6028772;23;20449;-90
2022/11/25 06:04:31;;;;;;;35.55;13.95;;;;;;;-2.85;68.88;100500.97;6027456;23;20106;-88
2022/11/25 06:07:00;;;;;;;24.57;9.53;;;;;;;-3.04;68.98;100478.44;6048516;23;20022;-91
2022/11/25 06:09:26;;;;;;;31.50;9.35;;;;;;;-3.23;69.24;100487.16;6050037;23;20018;-90
2022/11/25 06:11:52;;;;;;;39.22;11.40;;;;;;;-3.20;69.84;100482.22;6049395;23;20377;-92
2022/11/25 06:14:21;;;;;;;24.42;10.32;;;;;;;-2.90;69.91;100538.22;6026536;23;20026;-90
2022/11/25 06:16:49;;;;;;;32.72;11.60;;;;;;;-3.04;70.21;100523.09;6089063;23;20022;-88
2022/11/25 06:19:22;;;;;;;22.38;10.70;;;;;;;-2.70;69.72;100568.63;6102991;23;20026;-92
2022/11/25 06:21:49;;;;;;;28.95;11.55;;;;;;;-2.76;69.57;100536.44;6079489;23;20013;-92
2022/11/25 06:24:16;;;;;;;33.05;12.95;;;;;;;-2.56;68.99;100558.00;6080194;23;20056;-91
2022/11/25 06:26:44;;;;;;;33.55;12.50;;;;;;;-2.61;68.98;100546.03;6046807;23;20357;-90
2022/11/25 06:29:11;;;;;;;32.75;13.25;;;;;;;-2.36;68.54;100581.19;6050850;23;20018;-91
2022/11/25 06:31:38;;;;;;;36.78;13.63;;;;;;;-2.20;68.49;100577.34;5997337;23;20054;-90
2022/11/25 06:34:41;;;;;;;30.70;11.73;;;;;;;-2.32;68.19;100556.69;6061826;23;20015;-89
2022/11/25 06:37:14;;;;;;;38.42;12.02;;;;;;;-2.31;67.56;100553.81;6000817;23;20055;-88
2022/11/25 06:40:01;;;;;;;34.38;11.27;;;;;;;-2.56;67.76;100533.91;6044831;23;20065;-89
2022/11/25 06:42:37;;;;;;;24.17;9.15;;;;;;;-2.88;68.80;100518.28;5931076;24;20027;-88
2022/11/25 06:45:05;;;;;;;30.33;12.65;;;;;;;-2.58;68.85;100558.22;5959873;24;20027;-89
2022/11/25 06:47:31;;;;;;;26.73;12.10;;;;;;;-2.41;68.80;100556.84;5988820;24;20027;-88
2022/11/25 06:49:57;;;;;;;36.22;11.63;;;;;;;-2.51;68.58;100543.00;5914577;24;20464;-89
2022/11/25 06:52:24;;;;;;;30.20;10.87;;;;;;;-2.25;68.16;100585.19;5938966;24;20050;-91
2022/11/25 06:54:53;;;;;;;31.02;13.10;;;;;;;-2.68;68.52;100521.09;5940006;24;20028;-90
2022/11/25 06:57:19;;;;;;;24.98;9.65;;;;;;;-2.36;68.44;100591.91;5978803;23;20008;-90
2022/11/25 06:59:45;;;;;;;38.55;12.93;;;;;;;-2.39;68.70;100586.94;6005198;23;20024;-90
2022/11/25 07:02:12;;;;;;;29.73;12.55;;;;;;;-2.49;68.61;100553.50;5973665;24;20103;-91
2022/11/25 07:04:41;;;;;;;29.98;10.82;;;;;;;-2.16;68.16;100597.34;6012362;23;20023;-91
2022/11/25 07:07:08;;;;;;;36.53;13.57;;;;;;;-2.41;68.15;100550.69;6045505;23;20105;-90
2022/11/25 07:09:35;;;;;;;28.33;12.85;;;;;;;-2.21;68.33;100591.78;6020926;23;20014;-90
2022/11/25 07:12:02;;;;;;;32.40;13.30;;;;;;;-2.33;68.23;100568.44;6049037;23;20052;-91
2022/11/25 07:14:29;;;;;;;36.60;13.52;;;;;;;-2.12;67.97;100605.81;6026428;23;20023;-89
2022/11/25 07:16:57;;;;;;;40.75;15.00;;;;;;;-2.46;67.87;100547.75;6071740;23;20019;-88
2022/11/25 07:19:48;;;;;;;39.85;14.85;;;;;;;-1.88;67.88;100609.88;6061493;23;20018;-88
2022/11/25 07:22:15;;;;;;;36.22;14.43;;;;;;;-1.92;67.70;100598.75;6028624;23;20408;-87
2022/11/25 07:24:41;;;;;;;31.17;12.50;;;;;;;-2.39;67.51;100546.75;6050917;23;20044;-92
2022/11/25 07:27:07;;;;;;;28.80;12.05;;;;;;;-2.38;67.31;100552.97;6077884;23;20029;-90
2022/11/25 07:29:34;;;;;;;27.83;10.90;;;;;;;-2.16;67.61;100585.81;6096555;23;20054;-92
2022/11/25 07:32:04;;;;;;;26.52;11.07;;;;;;;-2.16;67.07;100585.81;6074379;23;20030;-89
2022/11/25 07:34:30;;;;;;;26.70;9.60;;;;;;;-1.96;66.98;100615.41;6041380;23;20020;-88
2022/11/25 07:36:56;;;;;;;42.03;10.93;;;;;;;-1.98;67.54;100604.06;6062584;23;20022;-87
2022/11/25 07:39:26;;;;;;;27.25;9.38;;;;;;;-2.21;67.47;100578.41;6057949;23;20261;-88
2022/11/25 07:42:15;;;;;;;29.35;9.88;;;;;;;-2.33;67.18;100568.44;6066225;23;20085;-89
2022/11/25 07:44:41;;;;;;;25.20;10.02;;;;;;;-2.10;67.06;100593.06;6056509;23;20018;-90
2022/11/25 07:47:34;;;;;;;22.58;9.63;;;;;;;-2.17;67.45;100579.66;6103627;23;20018;-89
2022/11/25 07:50:01;;;;;;;26.60;10.10;;;;;;;-2.31;67.61;100561.03;6078346;23;20070;-90
2022/11/25 07:52:29;;;;;;;24.92;9.02;;;;;;;-2.17;67.30;100598.41;6054719;23;20022;-89
2022/11/25 07:54:55;;;;;;;28.05;9.45;;;;;;;-2.16;67.50;100592.00;6100555;23;20018;-89
2022/11/25 07:57:24;;;;;;;27.73;11.43;;;;;;;-2.38;67.29;100569.84;6052139;23;20018;-86
2022/11/25 07:59:53;;;;;;;24.23;8.50;;;;;;;-2.28;67.21;100577.53;6026952;23;20503;-87
2022/11/25 08:02:20;;;;;;;27.27;11.43;;;;;;;-2.24;67.43;100581.47;6054129;23;20101;-88
2022/11/25 08:04:47;;;;;;;24.65;9.63;;;;;;;-2.45;67.27;100573.50;6077706;23;20346;-91
2022/11/25 08:07:16;;;;;;;25.38;10.88;;;;;;;-2.28;67.80;100617.72;6052276;23;20024;-88
2022/11/25 08:09:42;;;;;;;28.20;10.10;;;;;;;-2.30;67.96;100608.22;6028362;23;20560;-90
2022/11/25 08:12:11;;;;;;;25.52;9.43;;;;;;;-2.33;68.16;100601.38;6077282;23;20022;-89
2022/11/25 08:14:37;;;;;;;33.28;14.00;;;;;;;-2.32;67.85;100580.78;6051147;23;20022;-91
2022/11/25 08:17:04;;;;;;;29.15;11.25;;;;;;;-2.29;67.94;100577.72;6101137;23;20018;-88
2022/11/25 08:19:32;;;;;;;26.92;9.73;;;;;;;-2.13;67.74;100598.81;6026992;23;20018;-88
2022/11/25 08:21:59;;;;;;;28.63;9.90;;;;;;;-2.00;67.83;100595.38;6078353;23;20041;-88
2022/11/25 08:24:28;;;;;;;24.85;9.52;;;;;;;-1.92;66.93;100617.50;6011298;23;20173;-89
2022/11/25 08:27:00;;;;;;;26.95;10.13;;;;;;;-1.79;66.85;100638.16;6078901;23;20049;-88
2022/11/25 08:29:27;;;;;;;25.67;9.55;;;;;;;-1.98;66.96;100596.84;6080719;23;20086;-90
2022/11/25 08:31:54;;;;;;;32.08;10.05;;;;;;;-1.91;67.43;100648.63;6032009;23;20046;-90
2022/11/25 08:34:39;;;;;;;22.67;10.27;;;;;;;-1.81;67.46;100631.34;6031712;23;20314;-89
2022/11/25 08:37:11;;;;;;;20.58;8.95;;;;;;;-2.32;67.63;100551.31;6088837;23;20018;-89
2022/11/25 08:39:48;;;;;;;26.88;9.32;;;;;;;-1.87;67.00;100632.16;6124134;23;20019;-89
2022/11/25 08:42:14;;;;;;;23.50;9.75;;;;;;;-1.71;67.13;100645.22;6113110;23;20023;-89
2022/11/25 08:44:41;;;;;;;21.48;9.40;;;;;;;-2.04;66.42;100589.59;6038604;23;20038;-88
2022/11/25 08:47:08;;;;;;;27.10;11.48;;;;;;;-1.91;66.90;100604.91;6034279;23;20018;-89
2022/11/25 08:50:00;;;;;;;20.90;9.45;;;;;;;-1.74;66.16;100642.94;6080466;23;20070;-95
2022/11/25 08:52:27;;;;;;;26.38;10.48;;;;;;;-2.03;66.51;100601.97;6078960;23;20018;-91
2022/11/25 08:54:54;;;;;;;29.58;10.77;;;;;;;-2.11;67.29;100586.06;6079260;23;20021;-92
2022/11/25 08:57:20;;;;;;;25.42;8.75;;;;;;;-2.19;66.85;100597.75;6056878;23;20044;-88
2022/11/25 08:59:46;;;;;;;23.27;9.25;;;;;;;-1.83;67.21;100634.22;6055446;23;20018;-89
2022/11/25 09:02:16;;;;;;;20.73;8.40;;;;;;;-1.88;66.90;100639.38;6075637;23;20022;-88
2022/11/25 09:04:42;;;;;;;22.73;8.88;;;;;;;-1.89;67.00;100624.28;6054034;23;20122;-88
2022/11/25 09:07:30;;;;;;;21.40;8.15;;;;;;;-1.84;66.74;100634.44;6077886;23;20022;-89
2022/11/25 09:09:59;;;;;;;22.98;9.18;;;;;;;-1.68;66.81;100652.84;5963064;24;20020;-90
2022/11/25 09:12:25;;;;;;;24.33;8.68;;;;;;;-1.96;66.86;100624.25;5942040;24;20111;-91
2022/11/25 09:15:17;;;;;;;26.77;9.52;;;;;;;-2.01;67.43;100647.34;5965915;24;20020;-91
2022/11/25 09:18:00;;;;;;;23.13;9.25;;;;;;;-2.26;67.60;100591.53;5968035;23;20026;-95
2022/11/25 09:20:29;;;;;;;29.15;9.23;;;;;;;-2.52;67.18;100549.38;5998020;23;20020;-90
2022/11/25 09:22:59;;;;;;;23.10;9.55;;;;;;;-2.33;67.57;100573.78;5997516;23;20110;-92
2022/11/25 09:25:55;;;;;;;19.58;8.35;;;;;;;-1.87;67.33;100645.53;5972600;23;20023;-91
2022/11/25 09:28:26;;;;;;;24.02;9.55;;;;;;;-1.88;67.89;100631.31;5974172;23;20068;-90
2022/11/25 09:30:54;;;;;;;24.60;9.13;;;;;;;-2.22;67.84;100591.97;5956599;23;20007;-89
2022/11/25 09:34:03;;;;;;;26.02;9.80;;;;;;;-1.96;67.42;100636.84;6029980;23;20023;-93
2022/11/25 09:36:34;;;;;;;27.60;11.30;;;;;;;-2.73;67.98;100528.84;5985517;23;20027;-92
2022/11/25 09:48:39;;;;;;;17.35;7.22;;;;;;;-2.39;67.35;100603.00;6232523;23;20071;-91
2022/11/25 09:55:25;;;;;;;16.90;7.53;;;;;;;-2.06;67.02;100639.06;6123165;23;20029;-93
2022/11/25 10:00:51;;;;;;;19.65;8.07;;;;;;;-2.33;67.22;100598.72;6192876;23;20044;-92
2022/11/25 10:03:54;;;;;;;17.08;7.55;;;;;;;-2.19;67.11;100643.28;6129777;23;20388;-94
2022/11/25 10:10:51;;;;;;;14.15;6.20;;;;;;;-2.35;67.58;100640.94;6208432;23;20007;-94
2022/11/25 10:13:51;;;;;;;20.00;6.78;;;;;;;-2.30;67.97;100654.56;6155783;23;20020;-95
2022/11/25 10:16:31;;;;;;;18.70;6.60;;;;;;;-2.33;67.52;100613.97;6151780;23;20047;-93
2022/11/25 10:19:27;;;;;;;19.17;7.53;;;;;;;-2.17;67.06;100617.16;6127826;23;20017;-94
2022/11/25 10:21:57;;;;;;;20.67;7.22;;;;;;;-2.16;66.50;100615.28;6140122;23;20020;-95
2022/11/25 10:31:15;;;;;;;17.95;6.00;;;;;;;-2.03;66.92;100671.63;6221099;22;20040;-96
2022/11/25 10:42:57;;;;;;;17.70;7.93;;;;;;;-1.91;66.11;100679.97;6240241;23;20024;-95
2022/11/25 11:02:34;;;;;;;15.70;6.88;;;;;;;-2.42;65.88;100599.88;6212975;23;20036;-92
2022/11/25 11:12:29;;;;;;;12.32;5.70;;;;;;;-1.97;66.44;100705.69;6108573;23;20010;-88
2022/11/25 11:18:51;;;;;;;14.27;5.95;;;;;;;-2.31;67.01;100660.97;6059745;23;20027;-93
2022/11/25 11:22:23;;;;;;;16.00;6.50;;;;;;;-2.03;66.86;100698.44;6009680;23;20094;-92
2022/11/25 11:25:26;;;;;;;14.50;5.72;;;;;;;-2.03;67.28;100702.97;6003302;23;20049;-90
2022/11/25 11:27:55;;;;;;;14.80;6.57;;;;;;;-2.38;66.91;100644.03;6023388;23;20043;-92
2022/11/25 11:30:26;;;;;;;8.10;4.13;;;;;;;-2.17;67.22;100691.34;5942597;23;20027;-90
2022/11/25 11:37:11;;;;;;;15.93;6.28;;;;;;;-2.47;66.68;100619.22;6008284;23;20004;-90
2022/11/25 11:40:07;;;;;;;12.48;5.30;;;;;;;-1.97;66.73;100694.16;5966973;23;20008;-91
2022/11/25 11:43:13;;;;;;;11.40;4.30;;;;;;;-2.07;66.83;100689.13;5986774;23;20012;-91
2022/11/25 11:46:30;;;;;;;18.25;6.57;;;;;;;-2.05;67.29;100700.50;6011739;23;20015;-94
2022/11/25 11:49:48;;;;;;;18.45;6.25;;;;;;;-2.06;66.87;100680.06;5939047;24;20392;-92
2022/11/25 11:52:23;;;;;;;14.23;5.68;;;;;;;-2.03;66.82;100717.19;5920925;24;20024;-93
2022/11/25 12:02:23;;;;;;;14.25;6.22;;;;;;;-1.92;65.99;100713.97;6142877;23;20033;-89
2022/11/25 12:05:03;;;;;;;17.60;7.38;;;;;;;-1.90;66.24;100729.84;6074999;23;20360;-87
2022/11/25 12:07:53;;;;;;;18.48;7.45;;;;;;;-1.72;66.81;100737.41;6063580;23;20109;-90
2022/11/25 12:10:37;;;;;;;17.08;6.85;;;;;;;-1.62;66.21;100737.00;6057272;23;20097;-92
2022/11/25 12:13:39;;;;;;;13.73;6.28;;;;;;;-1.86;65.87;100695.44;6075377;23;20029;-91
2022/11/25 12:16:32;;;;;;;14.82;6.78;;;;;;;-1.70;66.13;100730.78;6074432;23;20464;-90
2022/11/25 12:19:24;;;;;;;14.93;6.43;;;;;;;-1.82;66.37;100734.22;6093412;23;20091;-92
2022/11/25 12:25:40;;;;;;;19.95;6.40;;;;;;;-2.10;66.12;100702.09;5970204;24;20043;-90
2022/11/25 12:28:28;;;;;;;15.05;5.97;;;;;;;-2.42;66.13;100677.53;5954156;23;20008;-91
2022/11/25 12:31:47;;;;;;;17.05;7.43;;;;;;;-1.82;66.60;100735.06;6000900;23;20028;-92
2022/11/25 12:34:57;;;;;;;15.80;7.03;;;;;;;-1.97;66.64;100740.53;5918215;24;20021;-95
2022/11/25 12:38:08;;;;;;;12.60;6.20;;;;;;;-1.97;66.07;100732.47;5920904;24;20040;-96
2022/11/25 12:41:18;;;;;;;22.80;6.05;;;;;;;-1.97;65.92;100745.06;5869150;24;20024;-94
2022/11/25 12:44:42;;;;;;;17.77;6.90;;;;;;;-1.96;66.28;100750.22;5924077;24;20422;-95
2022/11/25 12:47:13;;;;;;;15.07;5.55;;;;;;;-1.96;66.60;100757.44;5938046;24;20031;-88
2022/11/25 12:49:45;;;;;;;;;;;;;;;-2.13;66.76;100756.88;5920404;24;20035;-94
2022/11/25 12:52:36;;;;;;;11.55;6.25;;;;;;;-2.43;67.14;100708.84;5968966;24;19918;-94
2022/11/25 12:55:26;;;;;;;13.75;5.63;;;;;;;-2.22;67.00;100764.25;5946690;24;20080;-93
2022/11/25 12:58:41;;;;;;;12.05;5.22;;;;;;;-2.40;66.93;100729.88;5950105;24;20027;-88
2022/11/25 13:01:34;;;;;;;13.02;6.15;;;;;;;-2.09;66.93;100758.16;5941494;23;20024;-94
2022/11/25 13:04:29;;;;;;;12.65;5.95;;;;;;;-1.98;66.78;100760.31;6042203;23;20019;-91
2022/11/25 13:07:51;;;;;;;13.70;6.15;;;;;;;-1.81;68.84;100768.88;6090550;23;20014;-89
2022/11/25 13:10:53;;;;;;;11.20;5.18;;;;;;;-1.92;65.97;100774.75;5968089;24;20020;-90
2022/11/25 13:14:19;;;;;;;15.98;5.22;;;;;;;-2.13;67.49;100749.69;5974566;24;20008;-94
2022/11/25 13:20:26;;;;;;;13.25;5.75;;;;;;;-2.00;67.34;100782.97;6033668;23;20077;-93
2022/11/25 13:23:51;;;;;;;13.25;5.97;;;;;;;-1.92;66.85;100783.66;6011143;23;20014;-94
2022/11/25 13:26:33;;;;;;;26.27;8.80;;;;;;;-1.81;67.20;100786.81;6029031;23;20530;-95
2022/11/25 13:29:28;;;;;;;16.25;7.05;;;;;;;-1.71;66.44;100781.94;6023093;23;20035;-91
2022/11/25 13:32:36;;;;;;;22.35;9.25;;;;;;;-2.00;66.47;100748.94;6016144;23;20028;-95
2022/11/25 13:35:53;;;;;;;15.63;7.13;;;;;;;-1.91;66.65;100787.16;5972719;23;20423;-91
2022/11/25 13:38:56;;;;;;;16.70;7.20;;;;;;;-2.11;66.98;100762.91;5991436;23;20029;-93
2022/11/25 13:41:41;;;;;;;12.27;6.68;;;;;;;-2.00;66.87;100796.34;5995446;23;20043;-93
2022/11/25 13:44:47;;;;;;;11.60;6.05;;;;;;;-1.94;66.18;100792.91;5976081;23;20008;-94
2022/11/25 13:47:37;;;;;;;12.77;6.45;;;;;;;-1.93;66.59;100790.03;5999062;23;20545;-89
2022/11/25 13:50:29;;;;;;;11.00;5.63;;;;;;;-1.91;66.39;100805.91;6008028;23;20432;-93
2022/11/25 13:53:32;;;;;;;13.20;6.60;;;;;;;-1.84;66.41;100793.41;6073209;23;20057;-93
2022/11/25 13:56:19;;;;;;;12.45;6.32;;;;;;;-1.79;66.83;100798.97;6051233;23;20130;-93
2022/11/25 13:59:15;;;;;;;11.65;6.10;;;;;;;-1.67;66.06;100799.28;6028459;23;20018;-93
2022/11/25 14:01:45;;;;;;;13.50;6.75;;;;;;;-1.66;66.07;100796.41;6079995;23;20025;-91
2022/11/25 14:07:21;;;;;;;10.27;5.10;;;;;;;-2.08;65.90;100769.72;6103995;23;20057;-91
2022/11/25 14:10:48;;;;;;;15.13;4.47;;;;;;;-1.86;67.13;100792.75;6095852;23;20029;-90
2022/11/25 14:13:32;;;;;;;12.23;6.50;;;;;;;-2.02;66.17;100766.25;6097371;23;20022;-91
2022/11/25 14:16:38;;;;;;;14.13;7.38;;;;;;;-1.64;66.57;100806.13;6118701;23;20002;-90